sensor_id;sensor_type;location;lat;lon;timestamp;temperature;humidity
24384;DHT22;12504;52.870;8.798;2022-08-19T00:00:38;15.80;99.90
24384;DHT22;12504;52.870;8.798;2022-08-19T00:03:04;15.80;99.90
24384;DHT22;12504;52.870;8.798;2022-08-19T00:05:30;15.80;99.90
24384;DHT22;12504;52.870;8.798;2022-08-19T00:07:57;15.70;99.90
24384;DHT22;12504;52.870;8.798;2022-08-19T00:10:23;15.60;99.90
24384;DHT22;12504;52.870;8.798;2022-08-19T00:12:50;15.60;99.90
24384;DHT22;12504;52.870;8.798;2022-08-19T00:15:18;15.60;99.90
24384;DHT22;12504;52.870;8.798;2022-08-19T00:17:45;15.60;99.90
24384;DHT22;12504;52.870;8.798;2022-08-19T00:20:14;15.60;99.90
24384;DHT22;12504;52.870;8.798;2022-08-19T00:22:45;15.50;99.90
24384;DHT22;12504;52.870;8.798;2022-08-19T00:25:13;15.60;99.90
24384;DHT22;12504;52.870;8.798;2022-08-19T00:27:39;15.60;99.90
24384;DHT22;12504;52.870;8.798;2022-08-19T00:30:07;15.60;99.90
24384;DHT22;12504;52.870;8.798;2022-08-19T00:32:35;15.50;99.90
24384;DHT22;12504;52.870;8.798;2022-08-19T00:35:01;15.50;99.90
24384;DHT22;12504;52.870;8.798;2022-08-19T00:37:27;15.60;99.90
24384;DHT22;12504;52.870;8.798;2022-08-19T00:39:54;15.50;99.90
24384;DHT22;12504;52.870;8.798;2022-08-19T00:42:21;15.50;99.90
24384;DHT22;12504;52.870;8.798;2022-08-19T00:44:48;15.60;99.90
24384;DHT22;12504;52.870;8.798;2022-08-19T00:47:14;15.60;99.90
24384;DHT22;12504;52.870;8.798;2022-08-19T00:49:45;15.50;99.90
24384;DHT22;12504;52.870;8.798;2022-08-19T00:52:32;15.50;99.90
24384;DHT22;12504;52.870;8.798;2022-08-19T01:33:06;15.70;99.90
24384;DHT22;12504;52.870;8.798;2022-08-19T01:35:32;15.70;99.90
24384;DHT22;12504;52.870;8.798;2022-08-19T01:38:04;15.70;99.90
24384;DHT22;12504;52.870;8.798;2022-08-19T01:40:35;15.60;99.90
24384;DHT22;12504;52.870;8.798;2022-08-19T01:43:02;15.60;99.90
24384;DHT22;12504;52.870;8.798;2022-08-19T01:45:31;15.60;99.90
24384;DHT22;12504;52.870;8.798;2022-08-19T01:47:59;15.50;99.90
24384;DHT22;12504;52.870;8.798;2022-08-19T01:50:25;15.50;99.90
24384;DHT22;12504;52.870;8.798;2022-08-19T01:52:51;15.50;99.90
24384;DHT22;12504;52.870;8.798;2022-08-19T01:55:19;15.40;99.90
24384;DHT22;12504;52.870;8.798;2022-08-19T01:57:50;15.40;99.90
24384;DHT22;12504;52.870;8.798;2022-08-19T02:00:19;15.40;99.90
24384;DHT22;12504;52.870;8.798;2022-08-19T02:02:45;15.40;99.90
24384;DHT22;12504;52.870;8.798;2022-08-19T02:05:11;15.30;99.90
24384;DHT22;12504;52.870;8.798;2022-08-19T02:07:39;15.30;99.90
24384;DHT22;12504;52.870;8.798;2022-08-19T02:10:08;15.30;99.90
24384;DHT22;12504;52.870;8.798;2022-08-19T02:12:34;15.30;99.90
24384;DHT22;12504;52.870;8.798;2022-08-19T02:15:01;15.20;99.90
24384;DHT22;12504;52.870;8.798;2022-08-19T02:17:28;15.20;99.90
24384;DHT22;12504;52.870;8.798;2022-08-19T02:19:55;15.20;99.90
24384;DHT22;12504;52.870;8.798;2022-08-19T02:22:22;15.10;99.90
24384;DHT22;12504;52.870;8.798;2022-08-19T02:24:48;15.10;99.90
24384;DHT22;12504;52.870;8.798;2022-08-19T02:27:14;15.10;99.90
24384;DHT22;12504;52.870;8.798;2022-08-19T02:29:40;15.00;99.90
24384;DHT22;12504;52.870;8.798;2022-08-19T02:32:06;15.00;99.90
24384;DHT22;12504;52.870;8.798;2022-08-19T02:34:34;14.90;99.90
24384;DHT22;12504;52.870;8.798;2022-08-19T02:37:00;14.90;99.90
24384;DHT22;12504;52.870;8.798;2022-08-19T02:39:26;14.90;99.90
24384;DHT22;12504;52.870;8.798;2022-08-19T02:41:57;14.90;99.90
24384;DHT22;12504;52.870;8.798;2022-08-19T02:44:25;15.00;99.90
24384;DHT22;12504;52.870;8.798;2022-08-19T02:46:50;15.00;99.90
24384;DHT22;12504;52.870;8.798;2022-08-19T02:49:16;15.00;99.90
24384;DHT22;12504;52.870;8.798;2022-08-19T02:51:43;15.00;99.90
24384;DHT22;12504;52.870;8.798;2022-08-19T02:54:11;15.00;99.90
24384;DHT22;12504;52.870;8.798;2022-08-19T02:56:39;15.10;99.90
24384;DHT22;12504;52.870;8.798;2022-08-19T02:59:06;15.10;99.90
24384;DHT22;12504;52.870;8.798;2022-08-19T03:01:34;15.00;99.90
24384;DHT22;12504;52.870;8.798;2022-08-19T03:04:02;15.00;99.90
24384;DHT22;12504;52.870;8.798;2022-08-19T03:06:28;15.00;99.90
24384;DHT22;12504;52.870;8.798;2022-08-19T03:08:54;15.00;99.90
24384;DHT22;12504;52.870;8.798;2022-08-19T03:11:24;15.00;99.90
24384;DHT22;12504;52.870;8.798;2022-08-19T03:13:51;15.00;99.90
24384;DHT22;12504;52.870;8.798;2022-08-19T03:16:18;14.90;99.90
24384;DHT22;12504;52.870;8.798;2022-08-19T03:18:45;14.90;99.90
24384;DHT22;12504;52.870;8.798;2022-08-19T03:21:19;14.90;99.90
24384;DHT22;12504;52.870;8.798;2022-08-19T03:23:46;14.80;99.90
24384;DHT22;12504;52.870;8.798;2022-08-19T03:26:12;14.80;99.90
24384;DHT22;12504;52.870;8.798;2022-08-19T03:28:40;14.80;99.90
24384;DHT22;12504;52.870;8.798;2022-08-19T03:31:10;14.70;99.90
24384;DHT22;12504;52.870;8.798;2022-08-19T03:33:37;14.70;99.90
24384;DHT22;12504;52.870;8.798;2022-08-19T03:38:33;14.60;99.90
24384;DHT22;12504;52.870;8.798;2022-08-19T03:41:04;14.60;99.90
24384;DHT22;12504;52.870;8.798;2022-08-19T03:43:34;14.60;99.90
24384;DHT22;12504;52.870;8.798;2022-08-19T03:46:17;14.60;99.90
24384;DHT22;12504;52.870;8.798;2022-08-19T03:48:49;14.70;99.90
24384;DHT22;12504;52.870;8.798;2022-08-19T03:51:31;14.60;99.90
24384;DHT22;12504;52.870;8.798;2022-08-19T03:53:59;14.60;99.90
24384;DHT22;12504;52.870;8.798;2022-08-19T03:56:27;14.60;99.90
24384;DHT22;12504;52.870;8.798;2022-08-19T03:58:58;14.60;99.90
24384;DHT22;12504;52.870;8.798;2022-08-19T04:01:27;14.50;99.90
24384;DHT22;12504;52.870;8.798;2022-08-19T04:03:55;14.50;99.90
24384;DHT22;12504;52.870;8.798;2022-08-19T04:06:28;14.50;99.90
24384;DHT22;12504;52.870;8.798;2022-08-19T04:09:13;14.40;99.90
24384;DHT22;12504;52.870;8.798;2022-08-19T04:16:39;14.40;99.90
24384;DHT22;12504;52.870;8.798;2022-08-19T04:19:06;14.40;99.90
24384;DHT22;12504;52.870;8.798;2022-08-19T04:21:33;14.40;99.90
24384;DHT22;12504;52.870;8.798;2022-08-19T04:23:59;14.40;99.90
24384;DHT22;12504;52.870;8.798;2022-08-19T04:26:31;14.40;99.90
24384;DHT22;12504;52.870;8.798;2022-08-19T04:28:59;14.30;99.90
24384;DHT22;12504;52.870;8.798;2022-08-19T04:31:29;14.30;99.90
24384;DHT22;12504;52.870;8.798;2022-08-19T04:33:57;14.30;99.90
24384;DHT22;12504;52.870;8.798;2022-08-19T04:36:27;14.30;99.90
24384;DHT22;12504;52.870;8.798;2022-08-19T04:38:56;14.30;99.90
24384;DHT22;12504;52.870;8.798;2022-08-19T04:41:24;14.30;99.90
24384;DHT22;12504;52.870;8.798;2022-08-19T04:44:09;14.40;99.90
24384;DHT22;12504;52.870;8.798;2022-08-19T04:46:35;14.30;99.90
24384;DHT22;12504;52.870;8.798;2022-08-19T04:49:03;14.40;99.90
24384;DHT22;12504;52.870;8.798;2022-08-19T04:51:31;14.40;99.90
24384;DHT22;12504;52.870;8.798;2022-08-19T04:53:58;14.40;99.90
24384;DHT22;12504;52.870;8.798;2022-08-19T04:56:26;14.50;99.90
24384;DHT22;12504;52.870;8.798;2022-08-19T04:58:54;14.50;99.90
24384;DHT22;12504;52.870;8.798;2022-08-19T05:01:26;14.50;99.90
24384;DHT22;12504;52.870;8.798;2022-08-19T05:03:54;14.50;99.90
24384;DHT22;12504;52.870;8.798;2022-08-19T05:06:22;14.50;99.90
24384;DHT22;12504;52.870;8.798;2022-08-19T05:08:49;14.50;99.90
24384;DHT22;12504;52.870;8.798;2022-08-19T05:11:24;14.50;99.90
24384;DHT22;12504;52.870;8.798;2022-08-19T05:13:51;14.60;99.90
24384;DHT22;12504;52.870;8.798;2022-08-19T05:16:20;14.60;99.90
24384;DHT22;12504;52.870;8.798;2022-08-19T05:18:46;14.60;99.90
24384;DHT22;12504;52.870;8.798;2022-08-19T05:21:32;14.60;99.90
24384;DHT22;12504;52.870;8.798;2022-08-19T05:24:18;14.60;99.90
24384;DHT22;12504;52.870;8.798;2022-08-19T05:26:47;14.70;99.90
24384;DHT22;12504;52.870;8.798;2022-08-19T05:29:15;14.70;99.90
24384;DHT22;12504;52.870;8.798;2022-08-19T05:31:42;14.70;99.90
24384;DHT22;12504;52.870;8.798;2022-08-19T05:34:09;14.70;99.90
24384;DHT22;12504;52.870;8.798;2022-08-19T05:36:40;14.70;99.90
24384;DHT22;12504;52.870;8.798;2022-08-19T05:39:08;14.70;99.90
24384;DHT22;12504;52.870;8.798;2022-08-19T05:41:34;14.70;99.90
24384;DHT22;12504;52.870;8.798;2022-08-19T05:44:04;14.70;99.90
24384;DHT22;12504;52.870;8.798;2022-08-19T05:46:32;14.80;99.90
24384;DHT22;12504;52.870;8.798;2022-08-19T05:48:58;14.90;99.90
24384;DHT22;12504;52.870;8.798;2022-08-19T05:51:25;15.10;99.90
24384;DHT22;12504;52.870;8.798;2022-08-19T05:53:51;15.30;99.90
24384;DHT22;12504;52.870;8.798;2022-08-19T05:56:17;15.50;99.90
24384;DHT22;12504;52.870;8.798;2022-08-19T05:58:44;15.80;99.90
24384;DHT22;12504;52.870;8.798;2022-08-19T06:01:13;16.40;99.90
24384;DHT22;12504;52.870;8.798;2022-08-19T06:03:39;17.20;99.90
24384;DHT22;12504;52.870;8.798;2022-08-19T06:06:10;17.50;99.90
24384;DHT22;12504;52.870;8.798;2022-08-19T06:08:37;17.70;99.90
24384;DHT22;12504;52.870;8.798;2022-08-19T06:11:18;17.80;99.90
24384;DHT22;12504;52.870;8.798;2022-08-19T06:13:46;18.00;99.90
24384;DHT22;12504;52.870;8.798;2022-08-19T06:16:13;18.00;99.90
24384;DHT22;12504;52.870;8.798;2022-08-19T06:18:45;17.90;99.90
24384;DHT22;12504;52.870;8.798;2022-08-19T06:21:11;18.00;99.90
24384;DHT22;12504;52.870;8.798;2022-08-19T06:23:37;18.00;99.90
24384;DHT22;12504;52.870;8.798;2022-08-19T06:26:03;18.00;99.90
24384;DHT22;12504;52.870;8.798;2022-08-19T06:28:29;18.00;99.90
24384;DHT22;12504;52.870;8.798;2022-08-19T06:30:55;17.90;99.90
24384;DHT22;12504;52.870;8.798;2022-08-19T06:33:20;17.90;99.90
24384;DHT22;12504;52.870;8.798;2022-08-19T06:35:46;17.80;99.90
24384;DHT22;12504;52.870;8.798;2022-08-19T06:38:11;17.70;99.90
24384;DHT22;12504;52.870;8.798;2022-08-19T06:40:38;17.70;99.90
24384;DHT22;12504;52.870;8.798;2022-08-19T06:43:04;17.70;99.90
24384;DHT22;12504;52.870;8.798;2022-08-19T06:45:30;17.70;99.90
24384;DHT22;12504;52.870;8.798;2022-08-19T06:47:56;17.80;99.90
24384;DHT22;12504;52.870;8.798;2022-08-19T06:50:25;17.90;99.90
24384;DHT22;12504;52.870;8.798;2022-08-19T06:52:50;18.10;99.90
24384;DHT22;12504;52.870;8.798;2022-08-19T06:55:16;18.10;99.90
24384;DHT22;12504;52.870;8.798;2022-08-19T06:57:42;18.10;99.90
24384;DHT22;12504;52.870;8.798;2022-08-19T07:00:09;18.20;99.90
24384;DHT22;12504;52.870;8.798;2022-08-19T07:02:40;18.10;99.90
24384;DHT22;12504;52.870;8.798;2022-08-19T07:05:06;18.30;99.90
24384;DHT22;12504;52.870;8.798;2022-08-19T07:07:32;18.40;99.90
24384;DHT22;12504;52.870;8.798;2022-08-19T07:09:58;18.40;99.90
24384;DHT22;12504;52.870;8.798;2022-08-19T07:12:24;18.40;99.90
24384;DHT22;12504;52.870;8.798;2022-08-19T07:14:49;18.30;99.90
24384;DHT22;12504;52.870;8.798;2022-08-19T07:17:15;18.20;99.90
24384;DHT22;12504;52.870;8.798;2022-08-19T07:19:41;18.20;99.90
24384;DHT22;12504;52.870;8.798;2022-08-19T07:22:09;18.20;99.90
24384;DHT22;12504;52.870;8.798;2022-08-19T07:24:35;18.30;99.90
24384;DHT22;12504;52.870;8.798;2022-08-19T07:27:03;18.40;99.90
24384;DHT22;12504;52.870;8.798;2022-08-19T07:29:32;18.60;99.90
24384;DHT22;12504;52.870;8.798;2022-08-19T07:31:59;18.70;99.90
24384;DHT22;12504;52.870;8.798;2022-08-19T07:34:27;18.80;99.90
24384;DHT22;12504;52.870;8.798;2022-08-19T07:36:53;18.90;99.90
24384;DHT22;12504;52.870;8.798;2022-08-19T07:39:26;18.90;99.90
24384;DHT22;12504;52.870;8.798;2022-08-19T07:41:52;18.90;99.90
24384;DHT22;12504;52.870;8.798;2022-08-19T07:44:27;19.00;99.90
24384;DHT22;12504;52.870;8.798;2022-08-19T07:46:55;19.00;99.90
24384;DHT22;12504;52.870;8.798;2022-08-19T07:49:22;19.00;99.90
24384;DHT22;12504;52.870;8.798;2022-08-19T07:51:52;19.00;99.90
24384;DHT22;12504;52.870;8.798;2022-08-19T07:54:21;19.00;99.90
24384;DHT22;12504;52.870;8.798;2022-08-19T07:56:46;19.00;99.90
24384;DHT22;12504;52.870;8.798;2022-08-19T07:59:12;19.10;99.90
24384;DHT22;12504;52.870;8.798;2022-08-19T08:01:39;19.20;99.90
24384;DHT22;12504;52.870;8.798;2022-08-19T08:04:06;19.30;99.90
24384;DHT22;12504;52.870;8.798;2022-08-19T08:06:50;19.30;99.90
24384;DHT22;12504;52.870;8.798;2022-08-19T08:09:37;19.30;99.90
24384;DHT22;12504;52.870;8.798;2022-08-19T08:12:13;19.40;99.90
24384;DHT22;12504;52.870;8.798;2022-08-19T08:14:46;19.60;99.90
24384;DHT22;12504;52.870;8.798;2022-08-19T08:17:14;19.80;99.90
24384;DHT22;12504;52.870;8.798;2022-08-19T08:19:41;20.20;99.90
24384;DHT22;12504;52.870;8.798;2022-08-19T08:22:07;20.40;99.90
24384;DHT22;12504;52.870;8.798;2022-08-19T08:24:33;20.50;99.90
24384;DHT22;12504;52.870;8.798;2022-08-19T08:27:01;20.80;99.60
24384;DHT22;12504;52.870;8.798;2022-08-19T08:29:30;20.80;99.50
24384;DHT22;12504;52.870;8.798;2022-08-19T08:31:56;21.10;85.40
24384;DHT22;12504;52.870;8.798;2022-08-19T08:34:23;21.20;73.00
24384;DHT22;12504;52.870;8.798;2022-08-19T08:36:49;21.00;80.40
24384;DHT22;12504;52.870;8.798;2022-08-19T08:39:18;20.90;91.90
24384;DHT22;12504;52.870;8.798;2022-08-19T08:42:01;20.80;83.90
24384;DHT22;12504;52.870;8.798;2022-08-19T08:44:58;20.80;90.80
24384;DHT22;12504;52.870;8.798;2022-08-19T08:47:26;20.90;81.90
24384;DHT22;12504;52.870;8.798;2022-08-19T08:50:04;20.90;89.40
24384;DHT22;12504;52.870;8.798;2022-08-19T08:52:36;20.90;88.10
24384;DHT22;12504;52.870;8.798;2022-08-19T08:55:12;20.90;95.80
24384;DHT22;12504;52.870;8.798;2022-08-19T09:02:48;21.10;57.70
24384;DHT22;12504;52.870;8.798;2022-08-19T09:05:14;20.90;10.10
24384;DHT22;12504;52.870;8.798;2022-08-19T09:08:49;21.00;1.00
24384;DHT22;12504;52.870;8.798;2022-08-19T09:10:46;20.90;2.30
24384;DHT22;12504;52.870;8.798;2022-08-19T09:13:20;21.10;1.00
24384;DHT22;12504;52.870;8.798;2022-08-19T09:15:52;21.10;1.00
24384;DHT22;12504;52.870;8.798;2022-08-19T09:18:19;21.20;2.80
24384;DHT22;12504;52.870;8.798;2022-08-19T09:20:45;21.20;1.00
24384;DHT22;12504;52.870;8.798;2022-08-19T09:23:13;21.40;1.00
24384;DHT22;12504;52.870;8.798;2022-08-19T09:25:39;21.60;1.00
24384;DHT22;12504;52.870;8.798;2022-08-19T09:28:05;21.70;1.00
24384;DHT22;12504;52.870;8.798;2022-08-19T09:30:40;21.90;1.00
24384;DHT22;12504;52.870;8.798;2022-08-19T09:33:06;21.90;1.00
24384;DHT22;12504;52.870;8.798;2022-08-19T09:35:32;21.90;1.00
24384;DHT22;12504;52.870;8.798;2022-08-19T09:37:59;21.90;1.00
24384;DHT22;12504;52.870;8.798;2022-08-19T09:40:27;21.80;1.00
24384;DHT22;12504;52.870;8.798;2022-08-19T09:42:54;21.90;1.00
24384;DHT22;12504;52.870;8.798;2022-08-19T09:45:21;22.00;1.00
24384;DHT22;12504;52.870;8.798;2022-08-19T09:47:50;22.00;1.00
24384;DHT22;12504;52.870;8.798;2022-08-19T09:50:16;22.00;1.00
24384;DHT22;12504;52.870;8.798;2022-08-19T09:52:44;21.90;1.00
24384;DHT22;12504;52.870;8.798;2022-08-19T09:55:10;21.90;99.90
24384;DHT22;12504;52.870;8.798;2022-08-19T09:57:37;22.00;99.90
24384;DHT22;12504;52.870;8.798;2022-08-19T10:00:06;22.10;99.90
24384;DHT22;12504;52.870;8.798;2022-08-19T10:02:33;22.00;99.90
24384;DHT22;12504;52.870;8.798;2022-08-19T10:04:59;22.10;99.90
24384;DHT22;12504;52.870;8.798;2022-08-19T10:07:43;22.20;99.90
24384;DHT22;12504;52.870;8.798;2022-08-19T10:10:09;22.20;99.90
24384;DHT22;12504;52.870;8.798;2022-08-19T10:12:35;22.20;99.90
24384;DHT22;12504;52.870;8.798;2022-08-19T10:15:02;22.40;99.90
24384;DHT22;12504;52.870;8.798;2022-08-19T10:17:28;22.40;99.90
24384;DHT22;12504;52.870;8.798;2022-08-19T10:19:54;22.50;63.80
24384;DHT22;12504;52.870;8.798;2022-08-19T10:22:20;22.60;1.00
24384;DHT22;12504;52.870;8.798;2022-08-19T10:24:46;22.70;1.00
24384;DHT22;12504;52.870;8.798;2022-08-19T10:27:12;22.70;1.00
24384;DHT22;12504;52.870;8.798;2022-08-19T10:29:39;22.90;1.00
24384;DHT22;12504;52.870;8.798;2022-08-19T10:32:07;23.00;1.00
24384;DHT22;12504;52.870;8.798;2022-08-19T10:34:35;23.10;1.00
24384;DHT22;12504;52.870;8.798;2022-08-19T10:37:02;23.20;1.00
24384;DHT22;12504;52.870;8.798;2022-08-19T10:39:31;23.40;1.00
24384;DHT22;12504;52.870;8.798;2022-08-19T10:41:57;23.40;1.00
24384;DHT22;12504;52.870;8.798;2022-08-19T10:44:23;23.20;1.00
24384;DHT22;12504;52.870;8.798;2022-08-19T10:46:49;23.30;21.80
24384;DHT22;12504;52.870;8.798;2022-08-19T10:49:15;23.60;1.00
24384;DHT22;12504;52.870;8.798;2022-08-19T10:51:41;23.60;1.00
24384;DHT22;12504;52.870;8.798;2022-08-19T10:54:26;23.70;6.10
24384;DHT22;12504;52.870;8.798;2022-08-19T10:57:13;23.80;88.00
24384;DHT22;12504;52.870;8.798;2022-08-19T10:59:39;23.70;1.00
24384;DHT22;12504;52.870;8.798;2022-08-19T11:02:08;23.90;1.00
24384;DHT22;12504;52.870;8.798;2022-08-19T11:04:36;24.20;1.00
24384;DHT22;12504;52.870;8.798;2022-08-19T11:07:03;24.50;1.00
24384;DHT22;12504;52.870;8.798;2022-08-19T11:09:30;24.70;1.00
24384;DHT22;12504;52.870;8.798;2022-08-19T11:11:56;24.80;1.00
24384;DHT22;12504;52.870;8.798;2022-08-19T11:14:23;25.00;1.00
24384;DHT22;12504;52.870;8.798;2022-08-19T11:16:50;25.40;1.00
24384;DHT22;12504;52.870;8.798;2022-08-19T11:19:16;25.40;1.00
24384;DHT22;12504;52.870;8.798;2022-08-19T11:21:46;25.80;1.00
24384;DHT22;12504;52.870;8.798;2022-08-19T11:24:18;26.00;99.90
24384;DHT22;12504;52.870;8.798;2022-08-19T11:26:45;26.70;99.90
24384;DHT22;12504;52.870;8.798;2022-08-19T11:29:12;27.70;99.90
24384;DHT22;12504;52.870;8.798;2022-08-19T11:31:41;29.00;99.90
24384;DHT22;12504;52.870;8.798;2022-08-19T11:34:09;29.80;1.00
24384;DHT22;12504;52.870;8.798;2022-08-19T11:36:37;31.30;1.00
24384;DHT22;12504;52.870;8.798;2022-08-19T11:39:05;32.10;99.90
24384;DHT22;12504;52.870;8.798;2022-08-19T11:41:31;32.20;72.20
24384;DHT22;12504;52.870;8.798;2022-08-19T11:43:57;31.70;1.00
24384;DHT22;12504;52.870;8.798;2022-08-19T11:46:24;31.40;1.00
24384;DHT22;12504;52.870;8.798;2022-08-19T11:48:51;32.00;1.00
24384;DHT22;12504;52.870;8.798;2022-08-19T11:51:20;33.30;1.00
24384;DHT22;12504;52.870;8.798;2022-08-19T11:53:48;34.10;99.90
24384;DHT22;12504;52.870;8.798;2022-08-19T11:56:15;33.70;99.90
24384;DHT22;12504;52.870;8.798;2022-08-19T11:58:41;33.40;99.90
24384;DHT22;12504;52.870;8.798;2022-08-19T12:01:16;33.10;99.90
24384;DHT22;12504;52.870;8.798;2022-08-19T12:03:45;34.20;99.90
24384;DHT22;12504;52.870;8.798;2022-08-19T12:06:14;34.40;39.40
24384;DHT22;12504;52.870;8.798;2022-08-19T12:08:41;34.30;1.00
24384;DHT22;12504;52.870;8.798;2022-08-19T12:11:09;35.10;1.00
24384;DHT22;12504;52.870;8.798;2022-08-19T12:13:35;35.10;1.00
24384;DHT22;12504;52.870;8.798;2022-08-19T12:16:14;35.10;1.00
24384;DHT22;12504;52.870;8.798;2022-08-19T12:18:41;35.00;1.00
24384;DHT22;12504;52.870;8.798;2022-08-19T12:21:12;34.70;99.90
24384;DHT22;12504;52.870;8.798;2022-08-19T12:23:42;34.50;99.90
24384;DHT22;12504;52.870;8.798;2022-08-19T12:26:11;34.60;99.90
24384;DHT22;12504;52.870;8.798;2022-08-19T12:28:37;33.80;99.90
24384;DHT22;12504;52.870;8.798;2022-08-19T12:31:03;34.50;99.90
24384;DHT22;12504;52.870;8.798;2022-08-19T12:33:28;35.20;99.90
24384;DHT22;12504;52.870;8.798;2022-08-19T12:35:55;35.50;99.90
24384;DHT22;12504;52.870;8.798;2022-08-19T12:38:25;35.00;99.90
24384;DHT22;12504;52.870;8.798;2022-08-19T12:40:50;35.50;99.90
24384;DHT22;12504;52.870;8.798;2022-08-19T12:43:17;35.60;99.90
24384;DHT22;12504;52.870;8.798;2022-08-19T12:45:45;35.10;99.90
24384;DHT22;12504;52.870;8.798;2022-08-19T12:48:12;35.00;99.90
24384;DHT22;12504;52.870;8.798;2022-08-19T12:50:42;34.60;99.90
24384;DHT22;12504;52.870;8.798;2022-08-19T12:53:08;34.30;99.90
24384;DHT22;12504;52.870;8.798;2022-08-19T12:55:34;33.90;99.90
24384;DHT22;12504;52.870;8.798;2022-08-19T12:57:59;33.80;99.90
24384;DHT22;12504;52.870;8.798;2022-08-19T13:00:27;34.10;99.90
24384;DHT22;12504;52.870;8.798;2022-08-19T13:02:53;33.90;99.90
24384;DHT22;12504;52.870;8.798;2022-08-19T13:05:22;33.40;99.90
24384;DHT22;12504;52.870;8.798;2022-08-19T13:07:50;32.90;99.90
24384;DHT22;12504;52.870;8.798;2022-08-19T13:10:19;33.00;99.90
24384;DHT22;12504;52.870;8.798;2022-08-19T13:12:47;33.10;99.90
24384;DHT22;12504;52.870;8.798;2022-08-19T13:15:14;32.40;99.90
24384;DHT22;12504;52.870;8.798;2022-08-19T13:17:40;32.00;99.90
24384;DHT22;12504;52.870;8.798;2022-08-19T13:20:08;31.70;99.90
24384;DHT22;12504;52.870;8.798;2022-08-19T13:22:35;31.40;99.90
24384;DHT22;12504;52.870;8.798;2022-08-19T13:25:02;31.40;99.90
24384;DHT22;12504;52.870;8.798;2022-08-19T13:27:29;31.20;99.90
24384;DHT22;12504;52.870;8.798;2022-08-19T13:29:55;31.30;99.90
24384;DHT22;12504;52.870;8.798;2022-08-19T13:32:39;31.10;99.90
24384;DHT22;12504;52.870;8.798;2022-08-19T13:35:23;31.20;99.90
24384;DHT22;12504;52.870;8.798;2022-08-19T13:37:49;31.10;99.90
24384;DHT22;12504;52.870;8.798;2022-08-19T13:40:20;30.70;99.90
24384;DHT22;12504;52.870;8.798;2022-08-19T13:42:53;30.90;99.90
24384;DHT22;12504;52.870;8.798;2022-08-19T13:45:21;30.70;99.90
24384;DHT22;12504;52.870;8.798;2022-08-19T13:47:49;31.00;59.40
24384;DHT22;12504;52.870;8.798;2022-08-19T13:50:19;30.90;99.90
24384;DHT22;12504;52.870;8.798;2022-08-19T13:52:45;30.80;99.90
24384;DHT22;12504;52.870;8.798;2022-08-19T13:55:14;31.10;99.90
24384;DHT22;12504;52.870;8.798;2022-08-19T13:57:40;31.20;99.90
24384;DHT22;12504;52.870;8.798;2022-08-19T14:00:09;31.10;99.90
24384;DHT22;12504;52.870;8.798;2022-08-19T14:02:39;30.80;99.90
24384;DHT22;12504;52.870;8.798;2022-08-19T14:05:08;31.10;99.90
24384;DHT22;12504;52.870;8.798;2022-08-19T14:07:34;31.70;99.90
24384;DHT22;12504;52.870;8.798;2022-08-19T14:10:00;31.50;99.90
24384;DHT22;12504;52.870;8.798;2022-08-19T14:12:25;31.60;99.90
24384;DHT22;12504;52.870;8.798;2022-08-19T14:14:51;31.50;99.90
24384;DHT22;12504;52.870;8.798;2022-08-19T14:17:16;31.70;99.90
24384;DHT22;12504;52.870;8.798;2022-08-19T14:19:42;31.60;99.90
24384;DHT22;12504;52.870;8.798;2022-08-19T14:22:08;31.70;99.90
24384;DHT22;12504;52.870;8.798;2022-08-19T14:24:37;31.50;99.90
24384;DHT22;12504;52.870;8.798;2022-08-19T14:27:02;31.40;99.90
24384;DHT22;12504;52.870;8.798;2022-08-19T14:29:28;31.10;99.90
24384;DHT22;12504;52.870;8.798;2022-08-19T14:31:55;30.90;99.90
24384;DHT22;12504;52.870;8.798;2022-08-19T14:34:25;31.00;99.90
24384;DHT22;12504;52.870;8.798;2022-08-19T14:36:51;30.90;99.90
24384;DHT22;12504;52.870;8.798;2022-08-19T14:39:17;30.90;99.90
24384;DHT22;12504;52.870;8.798;2022-08-19T14:41:43;30.90;99.90
24384;DHT22;12504;52.870;8.798;2022-08-19T14:44:11;30.80;99.90
24384;DHT22;12504;52.870;8.798;2022-08-19T14:46:38;30.60;99.90
24384;DHT22;12504;52.870;8.798;2022-08-19T14:49:05;30.20;99.90
24384;DHT22;12504;52.870;8.798;2022-08-19T14:51:31;30.00;99.90
24384;DHT22;12504;52.870;8.798;2022-08-19T14:53:56;29.70;99.90
24384;DHT22;12504;52.870;8.798;2022-08-19T14:56:26;29.90;99.90
24384;DHT22;12504;52.870;8.798;2022-08-19T14:58:52;30.30;99.90
24384;DHT22;12504;52.870;8.798;2022-08-19T15:01:19;30.10;99.90
24384;DHT22;12504;52.870;8.798;2022-08-19T15:03:47;30.20;99.90
24384;DHT22;12504;52.870;8.798;2022-08-19T15:06:13;30.10;99.90
24384;DHT22;12504;52.870;8.798;2022-08-19T15:08:41;30.20;99.90
24384;DHT22;12504;52.870;8.798;2022-08-19T15:11:12;30.40;99.90
24384;DHT22;12504;52.870;8.798;2022-08-19T15:13:40;31.00;99.90
24384;DHT22;12504;52.870;8.798;2022-08-19T15:16:07;30.70;99.90
24384;DHT22;12504;52.870;8.798;2022-08-19T15:18:33;31.20;99.90
24384;DHT22;12504;52.870;8.798;2022-08-19T15:21:00;30.70;99.90
24384;DHT22;12504;52.870;8.798;2022-08-19T15:23:26;30.30;99.90
24384;DHT22;12504;52.870;8.798;2022-08-19T15:25:52;30.20;99.90
24384;DHT22;12504;52.870;8.798;2022-08-19T15:28:24;30.00;99.90
24384;DHT22;12504;52.870;8.798;2022-08-19T15:30:50;30.60;99.90
24384;DHT22;12504;52.870;8.798;2022-08-19T15:33:15;30.90;99.90
24384;DHT22;12504;52.870;8.798;2022-08-19T15:35:43;31.10;99.90
24384;DHT22;12504;52.870;8.798;2022-08-19T15:38:09;30.70;99.90
24384;DHT22;12504;52.870;8.798;2022-08-19T15:40:35;30.40;99.90
24384;DHT22;12504;52.870;8.798;2022-08-19T15:43:01;29.80;99.90
24384;DHT22;12504;52.870;8.798;2022-08-19T15:45:27;29.40;99.90
24384;DHT22;12504;52.870;8.798;2022-08-19T15:47:58;29.50;99.90
24384;DHT22;12504;52.870;8.798;2022-08-19T15:50:24;29.90;99.90
24384;DHT22;12504;52.870;8.798;2022-08-19T15:55:22;30.00;99.90
24384;DHT22;12504;52.870;8.798;2022-08-19T15:57:48;30.00;99.90
24384;DHT22;12504;52.870;8.798;2022-08-19T16:00:33;30.40;99.90
24384;DHT22;12504;52.870;8.798;2022-08-19T16:03:17;30.00;99.90
24384;DHT22;12504;52.870;8.798;2022-08-19T16:06:02;30.00;99.90
24384;DHT22;12504;52.870;8.798;2022-08-19T16:08:47;30.00;99.90
24384;DHT22;12504;52.870;8.798;2022-08-19T16:11:18;29.80;99.90
24384;DHT22;12504;52.870;8.798;2022-08-19T16:13:51;29.50;99.90
24384;DHT22;12504;52.870;8.798;2022-08-19T16:16:20;29.30;99.90
24384;DHT22;12504;52.870;8.798;2022-08-19T16:18:46;29.00;99.90
24384;DHT22;12504;52.870;8.798;2022-08-19T16:21:13;29.00;99.90
24384;DHT22;12504;52.870;8.798;2022-08-19T16:23:44;29.20;99.90
24384;DHT22;12504;52.870;8.798;2022-08-19T16:26:11;29.10;1.00
24384;DHT22;12504;52.870;8.798;2022-08-19T16:28:37;29.60;1.00
24384;DHT22;12504;52.870;8.798;2022-08-19T16:31:03;29.30;1.00
24384;DHT22;12504;52.870;8.798;2022-08-19T16:33:29;29.30;1.00